AUA83DF LGMK-LOWW
Flight info
| Callsign | AUA83DF |
|---|---|
| Flight time | N/A |
| Altitude | 38000 |
| Route | VARIX UL995 KEA UN132 ROPOX UM749 SKP UL617 MAKED DCT LONTA UM749 UDVAR DCT PARAK DCT BALUX DCT TORNO DCT NATEX NATEX2W |
| Aircraft | A320/M-SDE3FGHIRWY/LB1 |
Departure
| Time | 2026-05-04 18:38 |
|---|---|
| Airport | Mykonos Island National Airport (LGMK) |
Arrival
| Time | N/A |
|---|---|
| Airport | Vienna International Airport (LOWW) |
| Time | Latitude | Longitude | Altitude | Speed | Heading |
|---|---|---|---|---|---|
| 2026-05-04 18:15 | 37.43522 | 25.34658 | 402 ft | 0 kts | 250° |
| 2026-05-04 18:31 | 37.43525 | 25.34669 | 403 ft | 3 kts | 243° |
| 2026-05-04 18:31 | 37.43536 | 25.34688 | 400 ft | 3 kts | 204° |
| 2026-05-04 18:31 | 37.43554 | 25.34693 | 400 ft | 3 kts | 169° |
| 2026-05-04 18:31 | 37.43570 | 25.34688 | 399 ft | 1 kts | 160° |
| 2026-05-04 18:32 | 37.43575 | 25.34685 | 400 ft | 0 kts | 160° |
| 2026-05-04 18:34 | 37.43574 | 25.34686 | 400 ft | 2 kts | 160° |
| 2026-05-04 18:34 | 37.43487 | 25.34725 | 401 ft | 19 kts | 159° |
| 2026-05-04 18:34 | 37.43395 | 25.34829 | 396 ft | 18 kts | 117° |
| 2026-05-04 18:35 | 37.43309 | 25.34915 | 398 ft | 15 kts | 160° |
| 2026-05-04 18:35 | 37.43179 | 25.34972 | 398 ft | 24 kts | 161° |
| 2026-05-04 18:35 | 37.43036 | 25.35038 | 401 ft | 20 kts | 160° |
| 2026-05-04 18:35 | 37.42907 | 25.35093 | 401 ft | 19 kts | 162° |
| 2026-05-04 18:36 | 37.42799 | 25.35142 | 404 ft | 14 kts | 138° |
| 2026-05-04 18:36 | 37.42732 | 25.35202 | 404 ft | 10 kts | 195° |
| 2026-05-04 18:36 | 37.42737 | 25.35173 | 403 ft | 3 kts | 306° |
| 2026-05-04 18:36 | 37.42763 | 25.35155 | 404 ft | 6 kts | 340° |
| 2026-05-04 18:37 | 37.42765 | 25.35155 | 404 ft | 0 kts | 340° |
| 2026-05-04 18:38 | 37.42802 | 25.35138 | 404 ft | 33 kts | 340° |
| 2026-05-04 18:38 | 37.43333 | 25.34904 | 399 ft | 125 kts | 340° |
| 2026-05-04 18:38 | 37.44270 | 25.34504 | 955 ft | 146 kts | 341° |
| 2026-05-04 18:38 | 37.45278 | 25.34055 | 1813 ft | 159 kts | 337° |
| 2026-05-04 18:39 | 37.46171 | 25.33169 | 2258 ft | 181 kts | 302° |
| 2026-05-04 18:39 | 37.46462 | 25.31515 | 2602 ft | 210 kts | 277° |
| 2026-05-04 18:39 | 37.46608 | 25.29568 | 3071 ft | 235 kts | 280° |
| 2026-05-04 18:39 | 37.46808 | 25.27449 | 3780 ft | 249 kts | 281° |
| 2026-05-04 18:40 | 37.47020 | 25.25261 | 4778 ft | 253 kts | 282° |
| 2026-05-04 18:40 | 37.47235 | 25.23052 | 5759 ft | 256 kts | 282° |
| 2026-05-04 18:40 | 37.47453 | 25.20797 | 6695 ft | 262 kts | 282° |
| 2026-05-04 18:40 | 37.47669 | 25.18532 | 7591 ft | 266 kts | 282° |
| 2026-05-04 18:41 | 37.47893 | 25.16189 | 8515 ft | 270 kts | 282° |
| 2026-05-04 18:41 | 37.48118 | 25.13826 | 9435 ft | 274 kts | 281° |
| 2026-05-04 18:41 | 37.48356 | 25.11423 | 10311 ft | 279 kts | 284° |
| 2026-05-04 18:41 | 37.49037 | 25.09086 | 10669 ft | 294 kts | 307° |
| 2026-05-04 18:42 | 37.50524 | 25.07269 | 11153 ft | 304 kts | 328° |
| 2026-05-04 18:42 | 37.52281 | 25.05798 | 11885 ft | 310 kts | 328° |
| 2026-05-04 18:42 | 37.54093 | 25.04276 | 12681 ft | 315 kts | 328° |
| 2026-05-04 18:42 | 37.55934 | 25.02720 | 13464 ft | 320 kts | 328° |
| 2026-05-04 18:43 | 37.57798 | 25.01139 | 14210 ft | 324 kts | 328° |
| 2026-05-04 18:43 | 37.59681 | 24.99540 | 14913 ft | 328 kts | 328° |
| 2026-05-04 18:43 | 37.61565 | 24.97939 | 15610 ft | 332 kts | 328° |
| 2026-05-04 18:43 | 37.63494 | 24.96300 | 16300 ft | 336 kts | 328° |
| 2026-05-04 18:44 | 37.65448 | 24.94643 | 16985 ft | 340 kts | 328° |
| 2026-05-04 18:44 | 37.66112 | 24.94081 | 17217 ft | 341 kts | 328° |
| 2026-05-04 18:44 | 37.69424 | 24.91276 | 18357 ft | 347 kts | 328° |
| 2026-05-04 18:44 | 37.71440 | 24.89564 | 18941 ft | 351 kts | 327° |
| 2026-05-04 18:45 | 37.73456 | 24.87849 | 19526 ft | 354 kts | 328° |
| 2026-05-04 18:45 | 37.75511 | 24.86097 | 20113 ft | 358 kts | 328° |
| 2026-05-04 18:45 | 37.77590 | 24.84322 | 20701 ft | 362 kts | 328° |
| 2026-05-04 18:45 | 37.79691 | 24.82524 | 21293 ft | 365 kts | 327° |
| 2026-05-04 18:46 | 37.81806 | 24.80713 | 21879 ft | 368 kts | 328° |
| 2026-05-04 18:46 | 37.83921 | 24.78906 | 22449 ft | 372 kts | 328° |
| 2026-05-04 18:46 | 37.86075 | 24.77069 | 23021 ft | 375 kts | 328° |
| 2026-05-04 18:46 | 37.88256 | 24.75208 | 23595 ft | 379 kts | 328° |
| 2026-05-04 18:47 | 37.90451 | 24.73329 | 23999 ft | 383 kts | 328° |
| 2026-05-04 18:47 | 37.92665 | 24.71431 | 24110 ft | 384 kts | 327° |
| 2026-05-04 18:47 | 37.94876 | 24.69529 | 24152 ft | 385 kts | 327° |
| 2026-05-04 18:47 | 37.97107 | 24.67607 | 24608 ft | 388 kts | 327° |
| 2026-05-04 18:48 | 37.99353 | 24.65672 | 25095 ft | 391 kts | 327° |
| 2026-05-04 18:48 | 38.01592 | 24.63748 | 25533 ft | 394 kts | 327° |
| 2026-05-04 18:48 | 38.03880 | 24.61783 | 25966 ft | 398 kts | 327° |
| 2026-05-04 18:48 | 38.06185 | 24.59807 | 26388 ft | 401 kts | 327° |
| 2026-05-04 18:49 | 38.08511 | 24.57808 | 26809 ft | 404 kts | 327° |
| 2026-05-04 18:49 | 38.10821 | 24.55819 | 27205 ft | 407 kts | 327° |
| 2026-05-04 18:49 | 38.13177 | 24.53788 | 27601 ft | 411 kts | 327° |
| 2026-05-04 18:49 | 38.15548 | 24.51738 | 27996 ft | 414 kts | 327° |
| 2026-05-04 18:50 | 38.17940 | 24.49667 | 28384 ft | 417 kts | 327° |
| 2026-05-04 18:50 | 38.20348 | 24.47581 | 28763 ft | 420 kts | 327° |
| 2026-05-04 18:50 | 38.22779 | 24.45476 | 29137 ft | 423 kts | 327° |
| 2026-05-04 18:50 | 38.25217 | 24.43368 | 29500 ft | 426 kts | 327° |
| 2026-05-04 18:51 | 38.27681 | 24.41237 | 29854 ft | 429 kts | 327° |
| 2026-05-04 18:51 | 38.30158 | 24.39090 | 30202 ft | 431 kts | 327° |
| 2026-05-04 18:51 | 38.32620 | 24.36953 | 30502 ft | 434 kts | 327° |
| 2026-05-04 18:51 | 38.35115 | 24.34788 | 30830 ft | 435 kts | 327° |
| 2026-05-04 18:52 | 38.37629 | 24.32604 | 31160 ft | 436 kts | 327° |
| 2026-05-04 18:52 | 38.40115 | 24.30439 | 31465 ft | 437 kts | 327° |
| 2026-05-04 18:52 | 38.42623 | 24.28246 | 31771 ft | 438 kts | 327° |
| 2026-05-04 18:52 | 38.45145 | 24.26041 | 32183 ft | 436 kts | 327° |
| 2026-05-04 18:53 | 38.47650 | 24.23852 | 32640 ft | 434 kts | 327° |
| 2026-05-04 18:53 | 38.50111 | 24.21705 | 33095 ft | 431 kts | 327° |
| 2026-05-04 18:53 | 38.52583 | 24.19550 | 33561 ft | 428 kts | 326° |
| 2026-05-04 18:53 | 38.55042 | 24.17398 | 34044 ft | 425 kts | 326° |
| 2026-05-04 18:54 | 38.57479 | 24.15259 | 34463 ft | 422 kts | 326° |
| 2026-05-04 18:54 | 38.59873 | 24.13158 | 34837 ft | 420 kts | 326° |
| 2026-05-04 18:54 | 38.62282 | 24.11042 | 35193 ft | 418 kts | 326° |
| 2026-05-04 18:54 | 38.64679 | 24.08934 | 35546 ft | 416 kts | 326° |
| 2026-05-04 18:55 | 38.67054 | 24.06842 | 35879 ft | 414 kts | 326° |
| 2026-05-04 18:55 | 38.71766 | 24.02690 | 36515 ft | 411 kts | 326° |
| 2026-05-04 18:55 | 38.74120 | 24.00617 | 36828 ft | 409 kts | 326° |
| 2026-05-04 18:56 | 38.76468 | 23.98547 | 37114 ft | 408 kts | 326° |
| 2026-05-04 18:56 | 38.78020 | 23.97177 | 37300 ft | 407 kts | 326° |
| 2026-05-04 18:56 | 38.81110 | 23.94449 | 37678 ft | 405 kts | 325° |
| 2026-05-04 18:56 | 38.83433 | 23.92397 | 37946 ft | 404 kts | 325° |
| 2026-05-04 18:57 | 38.84966 | 23.91041 | 38074 ft | 404 kts | 325° |
| 2026-05-04 18:57 | 38.87284 | 23.88988 | 38124 ft | 402 kts | 325° |
| 2026-05-04 18:57 | 38.92636 | 23.84246 | 38126 ft | 401 kts | 325° |
| 2026-05-04 18:58 | 38.96462 | 23.80856 | 38121 ft | 401 kts | 325° |
| 2026-05-04 18:58 | 39.01057 | 23.76766 | 38110 ft | 401 kts | 325° |
| 2026-05-04 18:59 | 39.05652 | 23.72673 | 38099 ft | 402 kts | 325° |